createdAt,value
2019-03-09T00:00:48.405Z,98803.17
2019-03-09T00:03:17.867Z,98798.23
2019-03-09T00:05:48.075Z,98800.31
2019-03-09T00:08:17.827Z,98798.94
2019-03-09T00:10:47.324Z,98802.48
2019-03-09T00:13:16.843Z,98806.02
2019-03-09T00:15:46.483Z,98797.03
2019-03-09T00:18:16.515Z,98802.53
2019-03-09T00:20:46.044Z,98796.23
2019-03-09T00:23:23.007Z,98802.59
2019-03-09T00:26:26.639Z,98802.61
2019-03-09T00:29:14.780Z,98796.11
2019-03-09T00:32:02.941Z,98786.28
2019-03-09T00:34:32.384Z,98782.53
2019-03-09T00:37:01.576Z,98782.20
2019-03-09T00:39:31.300Z,98783.28
2019-03-09T00:42:01.257Z,98777.87
2019-03-09T00:44:32.312Z,98770.26
2019-03-09T00:47:02.419Z,98769.13
2019-03-09T00:49:35.577Z,98763.24
2019-03-09T00:52:06.725Z,98759.72
2019-03-09T00:54:37.029Z,98748.30
2019-03-09T00:57:07.329Z,98745.75
2019-03-09T00:59:38.053Z,98732.02
2019-03-09T01:02:07.875Z,98727.06
2019-03-09T01:04:37.844Z,98719.25
2019-03-09T01:07:08.346Z,98702.04
2019-03-09T01:09:38.618Z,98702.04
2019-03-09T01:12:07.783Z,98690.48
2019-03-09T01:14:37.758Z,98688.70
2019-03-09T01:17:07.205Z,98681.87
2019-03-09T01:19:36.377Z,98676.47
2019-03-09T01:22:06.700Z,98666.59
2019-03-09T01:24:35.887Z,98663.90
2019-03-09T01:27:06.193Z,98651.75
2019-03-09T01:29:37.190Z,98644.20
2019-03-09T01:32:06.661Z,98624.07
2019-03-09T01:34:36.403Z,98625.67
2019-03-09T01:37:06.665Z,98616.72
2019-03-09T01:39:40.381Z,98607.02
2019-03-09T01:42:09.833Z,98599.67
2019-03-09T01:44:40.055Z,98590.83
2019-03-09T01:47:09.784Z,98582.74
2019-03-09T01:49:40.545Z,98571.55
2019-03-09T01:52:09.706Z,98578.97
2019-03-09T01:54:38.879Z,98571.80
2019-03-09T01:57:09.085Z,98579.53
2019-03-09T01:59:42.873Z,98574.81
2019-03-09T02:02:12.843Z,98578.94
2019-03-09T02:04:42.684Z,98571.64
2019-03-09T02:07:12.893Z,98577.36
2019-03-09T02:09:42.083Z,98569.27
2019-03-09T02:12:12.598Z,98557.33
2019-03-09T02:14:42.535Z,98547.53
2019-03-09T02:17:11.991Z,98556.56
2019-03-09T02:19:41.436Z,98552.80
2019-03-09T02:22:10.987Z,98552.98
2019-03-09T02:24:40.157Z,98545.45
2019-03-09T02:27:09.864Z,98547.42
2019-03-09T02:29:40.681Z,98535.10
2019-03-09T02:32:11.015Z,98535.76
2019-03-09T02:34:41.274Z,98530.98
2019-03-09T02:37:11.334Z,98524.97
2019-03-09T02:39:47.849Z,98529.84
2019-03-09T02:42:17.029Z,98531.83
2019-03-09T02:44:46.743Z,98531.17
2019-03-09T02:47:16.504Z,98529.47
2019-03-09T02:49:45.940Z,98521.48
2019-03-09T02:52:15.393Z,98519.88
2019-03-09T02:54:44.856Z,98518.44
2019-03-09T02:57:18.816Z,98514.69
2019-03-09T02:59:47.967Z,98523.83
2019-03-09T03:02:26.659Z,98521.09
2019-03-09T03:04:56.069Z,98511.60
2019-03-09T03:07:26.433Z,98513.23
2019-03-09T03:09:58.733Z,98510.89
2019-03-09T03:12:31.473Z,98512.20
2019-03-09T03:15:00.636Z,98507.77
2019-03-09T03:17:30.088Z,98506.89
2019-03-09T03:19:59.246Z,98514.63
2019-03-09T03:22:28.799Z,98505.56
2019-03-09T03:24:58.533Z,98503.31
2019-03-09T03:27:28.520Z,98510.83
2019-03-09T03:29:58.230Z,98508.48
2019-03-09T03:32:33.155Z,98509.98
2019-03-09T03:35:03.145Z,98495.52
2019-03-09T03:37:32.350Z,98506.58
2019-03-09T03:40:01.618Z,98511.84
2019-03-09T03:42:30.808Z,98496.96
2019-03-09T03:44:59.959Z,98508.98
2019-03-09T03:47:31.015Z,98508.57
2019-03-09T03:50:00.387Z,98517.03
2019-03-09T03:52:30.182Z,98506.51
2019-03-09T03:55:00.546Z,98507.16
2019-03-09T03:57:29.671Z,98519.18
2019-03-09T03:59:59.301Z,98517.45
2019-03-09T04:02:28.892Z,98531.16
2019-03-09T04:04:58.338Z,98520.41
2019-03-09T04:07:27.515Z,98521.06
2019-03-09T04:09:56.960Z,98521.16
2019-03-09T04:12:26.167Z,98527.54
2019-03-09T04:14:55.349Z,98544.41
2019-03-09T04:17:24.535Z,98532.53
2019-03-09T04:19:53.711Z,98538.63
2019-03-09T04:22:23.297Z,98526.09
2019-03-09T04:24:53.079Z,98540.97
2019-03-09T04:27:22.225Z,98540.31
2019-03-09T04:29:51.395Z,98540.64
2019-03-09T04:32:20.568Z,98544.87
2019-03-09T04:34:50.099Z,98543.31
2019-03-09T04:37:19.296Z,98550.77
2019-03-09T04:39:48.454Z,98562.05
2019-03-09T04:42:17.901Z,98559.69
2019-03-09T04:44:48.328Z,98565.90
2019-03-09T04:47:17.516Z,98563.27
2019-03-09T04:49:46.979Z,98572.14
2019-03-09T04:52:16.722Z,98572.34
2019-03-09T04:54:45.903Z,98576.61
2019-03-09T04:57:15.080Z,98581.95
2019-03-09T04:59:44.553Z,98573.59
2019-03-09T05:02:14.009Z,98566.09
2019-03-09T05:04:56.554Z,98577.18
2019-03-09T05:07:52.214Z,98575.48
2019-03-09T05:10:40.956Z,98573.75
2019-03-09T05:13:13.906Z,98569.34
2019-03-09T05:15:44.567Z,98582.30
2019-03-09T05:18:14.940Z,98582.48
2019-03-09T05:20:44.660Z,98568.78
2019-03-09T05:23:14.195Z,98567.42
2019-03-09T05:25:45.417Z,98575.11
2019-03-09T05:28:15.383Z,98566.98
2019-03-09T05:30:45.981Z,98579.02
2019-03-09T05:33:15.415Z,98574.17
2019-03-09T05:35:44.626Z,98584.89
2019-03-09T05:38:15.911Z,98581.55
2019-03-09T05:40:45.448Z,98598.75
2019-03-09T05:43:14.588Z,98588.41
2019-03-09T05:45:44.101Z,98596.95
2019-03-09T05:48:13.539Z,98595.08
2019-03-09T05:50:43.519Z,98595.17
2019-03-09T05:53:15.403Z,98593.58
2019-03-09T05:55:47.524Z,98593.62
2019-03-09T05:58:16.975Z,98587.13
2019-03-09T06:00:47.920Z,98588.64
2019-03-09T06:03:17.877Z,98590.86
2019-03-09T06:05:52.823Z,98586.28
2019-03-09T06:08:22.676Z,98600.02
2019-03-09T06:10:53.499Z,98607.34
2019-03-09T06:13:22.655Z,98605.16
2019-03-09T06:15:51.956Z,98603.03
2019-03-09T06:18:21.248Z,98615.88
2019-03-09T06:20:50.531Z,98625.50
2019-03-09T06:23:21.130Z,98590.28
2019-03-09T06:25:50.320Z,98587.48
2019-03-09T06:28:19.885Z,98604.29
2019-03-09T06:30:51.506Z,98598.92
2019-03-09T06:33:42.083Z,98601.03
2019-03-09T06:36:41.386Z,98611.27
2019-03-09T06:39:18.508Z,98623.05
2019-03-09T06:42:10.882Z,98634.72
2019-03-09T06:44:40.064Z,98647.16
2019-03-09T06:47:09.539Z,98652.14
2019-03-09T06:49:38.695Z,98651.05
2019-03-09T06:52:07.885Z,98665.81
2019-03-09T06:54:37.338Z,98662.05
2019-03-09T06:57:14.091Z,98667.16
2019-03-09T06:59:43.200Z,98675.44
2019-03-09T07:02:17.798Z,98667.53
2019-03-09T07:04:48.722Z,98656.23
2019-03-09T07:07:24.186Z,98657.19
2019-03-09T07:09:53.900Z,98672.73
2019-03-09T07:12:28.174Z,98666.80
2019-03-09T07:15:18.778Z,98680.34
2019-03-09T07:17:48.741Z,98655.62
2019-03-09T07:20:18.156Z,98671.32
2019-03-09T07:22:47.926Z,98671.80
2019-03-09T07:25:17.085Z,98667.07
2019-03-09T07:27:56.158Z,98673.58
2019-03-09T07:30:25.732Z,98674.05
2019-03-09T07:32:54.938Z,98675.02
2019-03-09T07:35:24.116Z,98672.09
2019-03-09T07:37:53.338Z,98679.91
2019-03-09T07:40:22.506Z,98688.01
2019-03-09T07:42:55.600Z,98699.42
2019-03-09T07:45:24.771Z,98698.58
2019-03-09T07:47:53.957Z,98697.64
2019-03-09T07:50:23.436Z,98709.69
2019-03-09T07:52:54.929Z,98717.27
2019-03-09T07:55:27.122Z,98707.53
2019-03-09T07:58:04.631Z,98708.30
2019-03-09T08:00:34.049Z,98720.83
2019-03-09T08:03:04.314Z,98730.33
2019-03-09T08:05:33.580Z,98724.94
2019-03-09T08:08:03.019Z,98745.08
2019-03-09T08:10:33.255Z,98748.19
2019-03-09T08:13:03.485Z,98748.66
2019-03-09T08:15:34.974Z,98747.25
2019-03-09T08:18:04.131Z,98744.22
2019-03-09T08:20:34.161Z,98748.08
2019-03-09T08:23:03.602Z,98743.65
2019-03-09T08:25:35.488Z,98741.20
2019-03-09T08:28:06.755Z,98731.00
2019-03-09T08:30:36.785Z,98726.56
2019-03-09T08:33:08.400Z,98731.80
2019-03-09T08:35:40.557Z,98736.30
2019-03-09T08:38:10.836Z,98732.23
2019-03-09T08:40:42.843Z,98729.64
2019-03-09T08:43:14.048Z,98733.48
2019-03-09T08:45:43.507Z,98747.06
2019-03-09T08:48:13.801Z,98727.84
2019-03-09T08:50:43.480Z,98744.18
2019-03-09T08:53:13.173Z,98732.47
2019-03-09T08:55:43.489Z,98728.66
2019-03-09T08:58:13.514Z,98736.55
2019-03-09T09:00:45.794Z,98747.46
2019-03-09T09:03:15.510Z,98746.30
2019-03-09T09:05:47.507Z,98748.06
2019-03-09T09:08:16.988Z,98745.67
2019-03-09T09:10:47.183Z,98742.11
2019-03-09T09:13:16.986Z,98742.05
2019-03-09T09:15:46.146Z,98760.82
2019-03-09T09:18:15.605Z,98746.53
2019-03-09T09:20:46.135Z,98761.92
2019-03-09T09:23:16.122Z,98756.75
2019-03-09T09:25:45.622Z,98761.70
2019-03-09T09:28:16.958Z,98754.50
2019-03-09T09:30:47.012Z,98757.63
2019-03-09T09:33:20.365Z,98772.40
2019-03-09T09:35:50.669Z,98773.98
2019-03-09T09:38:22.220Z,98784.92
2019-03-09T09:40:53.964Z,98781.11
2019-03-09T09:43:23.718Z,98772.72
2019-03-09T09:45:53.678Z,98766.39
2019-03-09T09:48:24.846Z,98763.75
2019-03-09T09:50:54.320Z,98757.05
2019-03-09T09:53:23.734Z,98757.66
2019-03-09T09:55:54.362Z,98746.05
2019-03-09T09:58:23.549Z,98754.36
2019-03-09T10:00:54.386Z,98741.33
2019-03-09T10:03:26.292Z,98732.24
2019-03-09T10:05:55.744Z,98732.27
2019-03-09T10:08:28.325Z,98739.16
2019-03-09T10:10:58.337Z,98739.34
2019-03-09T10:13:32.837Z,98737.31
2019-03-09T10:16:02.328Z,98764.23
2019-03-09T10:18:31.514Z,98784.63
2019-03-09T10:21:00.697Z,98745.59
2019-03-09T10:23:30.150Z,98756.69
2019-03-09T10:26:00.642Z,98742.86
2019-03-09T10:28:29.849Z,98740.39
2019-03-09T10:30:59.566Z,98744.36
2019-03-09T10:33:29.225Z,98748.95
2019-03-09T10:35:58.967Z,98760.11
2019-03-09T10:38:28.458Z,98758.50
2019-03-09T10:40:57.851Z,98759.47
2019-03-09T10:43:27.456Z,98766.31
2019-03-09T10:45:59.263Z,98760.97
2019-03-09T10:48:29.555Z,98766.03
2019-03-09T10:51:03.051Z,98759.86
2019-03-09T10:53:32.315Z,98760.98
2019-03-09T10:56:01.526Z,98753.04
2019-03-09T10:58:30.697Z,98739.91
2019-03-09T11:01:01.378Z,98732.84
2019-03-09T11:03:30.546Z,98730.95
2019-03-09T11:05:59.725Z,98740.64
2019-03-09T11:08:29.154Z,98732.61
2019-03-09T11:11:00.352Z,98720.89
2019-03-09T11:13:29.511Z,98706.27
2019-03-09T11:15:58.802Z,98698.37
2019-03-09T11:18:27.979Z,98733.52
2019-03-09T11:20:57.426Z,98703.73
2019-03-09T11:23:26.634Z,98689.66
2019-03-09T11:25:55.839Z,98691.14
2019-03-09T11:28:25.602Z,98692.47
2019-03-09T11:30:54.803Z,98713.50
2019-03-09T11:33:24.239Z,98707.45
2019-03-09T11:35:53.586Z,98724.62
2019-03-09T11:38:26.092Z,98715.23
2019-03-09T11:40:59.707Z,98716.06
2019-03-09T11:43:28.103Z,98726.97
2019-03-09T11:45:58.356Z,98712.95
2019-03-09T11:48:30.014Z,98706.08
2019-03-09T11:51:01.218Z,98716.86
2019-03-09T11:53:30.397Z,98748.91
2019-03-09T11:56:01.152Z,98734.81
2019-03-09T11:58:31.731Z,98728.19
2019-03-09T12:01:00.914Z,98743.59
2019-03-09T12:03:30.251Z,98745.88
2019-03-09T12:06:00.256Z,98735.45
2019-03-09T12:08:30.008Z,98716.97
2019-03-09T12:11:00.603Z,98715.73
2019-03-09T12:13:29.785Z,98719.63
2019-03-09T12:15:59.450Z,98717.02
2019-03-09T12:18:28.916Z,98712.68
2019-03-09T12:20:58.081Z,98700.38
2019-03-09T12:23:27.461Z,98688.81
2019-03-09T12:25:57.635Z,98681.21
2019-03-09T12:28:29.333Z,98676.54
2019-03-09T12:30:59.956Z,98696.28
2019-03-09T12:33:30.262Z,98671.93
2019-03-09T12:36:00.149Z,98681.48
2019-03-09T12:38:29.864Z,98670.62
2019-03-09T12:40:59.542Z,98661.34
2019-03-09T12:43:31.044Z,98640.47
2019-03-09T12:46:01.383Z,98644.47
2019-03-09T12:48:34.842Z,98649.53
2019-03-09T12:51:07.655Z,98626.86
2019-03-09T12:53:37.211Z,98611.08
2019-03-09T12:56:06.411Z,98586.75
2019-03-09T12:58:37.390Z,98568.42
2019-03-09T13:01:06.919Z,98559.21
2019-03-09T13:03:40.198Z,98538.61
2019-03-09T13:06:11.504Z,98525.23
2019-03-09T13:08:41.999Z,98521.23
2019-03-09T13:11:14.248Z,98514.33
2019-03-09T13:13:45.894Z,98486.36
2019-03-09T13:16:20.490Z,98467.09
2019-03-09T13:18:52.064Z,98457.28
2019-03-09T13:21:23.181Z,98430.37
2019-03-09T13:23:56.290Z,98451.84
2019-03-09T13:26:26.449Z,98476.53
2019-03-09T13:28:55.939Z,98440.48
2019-03-09T13:31:25.907Z,98457.94
2019-03-09T13:33:55.684Z,98429.33
2019-03-09T13:36:25.794Z,98405.74
2019-03-09T13:38:55.553Z,98404.41
2019-03-09T13:41:25.496Z,98497.97
2019-03-09T13:43:59.645Z,98424.14
2019-03-09T13:46:29.363Z,98437.69
2019-03-09T13:48:59.414Z,98423.30
2019-03-09T13:51:28.639Z,98425.61
2019-03-09T13:53:58.022Z,98386.14
2019-03-09T13:56:28.500Z,98380.73
2019-03-09T13:58:57.985Z,98362.56
2019-03-09T14:01:28.047Z,98373.55
2019-03-09T14:04:00.672Z,98340.72
2019-03-09T14:06:42.334Z,98334.75
2019-03-09T14:09:14.642Z,98356.57
2019-03-09T14:11:43.857Z,98324.61
2019-03-09T14:14:13.765Z,98305.04
2019-03-09T14:16:43.997Z,98298.22
2019-03-09T14:19:14.575Z,98288.77
2019-03-09T14:21:46.015Z,98290.70
2019-03-09T14:24:18.376Z,98304.97
2019-03-09T14:26:53.287Z,98275.91
2019-03-09T14:29:25.121Z,98241.64
2019-03-09T14:31:55.325Z,98301.84
2019-03-09T14:34:25.018Z,98330.50
2019-03-09T14:36:54.389Z,98307.78
2019-03-09T14:39:24.669Z,98288.73
2019-03-09T14:41:54.805Z,98311.03
2019-03-09T14:44:25.363Z,98299.51
2019-03-09T14:46:59.255Z,98299.59
2019-03-09T14:49:29.111Z,98299.01
2019-03-09T14:51:59.195Z,98280.84
2019-03-09T14:54:31.484Z,98290.01
2019-03-09T14:57:04.368Z,98293.14
2019-03-09T14:59:35.113Z,98301.11
2019-03-09T15:02:05.103Z,98297.16
2019-03-09T15:04:37.822Z,98289.69
2019-03-09T15:07:14.051Z,98273.08
2019-03-09T15:09:46.016Z,98283.20
2019-03-09T15:12:15.233Z,98264.65
2019-03-09T15:14:44.872Z,98276.33
2019-03-09T15:17:14.068Z,98241.50
2019-03-09T15:19:43.242Z,98211.17
2019-03-09T15:22:12.707Z,98257.17
2019-03-09T15:24:42.213Z,98243.55
2019-03-09T15:27:13.173Z,98248.24
2019-03-09T15:29:42.906Z,98270.07
2019-03-09T15:32:15.537Z,98296.30
2019-03-09T15:34:44.832Z,98276.20
2019-03-09T15:37:14.314Z,98281.14
2019-03-09T15:39:44.425Z,98280.50
2019-03-09T15:42:13.896Z,98284.03
2019-03-09T15:44:43.664Z,98266.92
2019-03-09T15:47:13.767Z,98264.67
2019-03-09T15:49:43.351Z,98265.98
2019-03-09T15:52:12.527Z,98288.63
2019-03-09T15:54:41.940Z,98297.78
2019-03-09T15:57:11.596Z,98276.83
2019-03-09T15:59:41.805Z,98256.02
2019-03-09T16:02:13.300Z,98275.77
2019-03-09T16:04:43.580Z,98306.66
2019-03-09T16:07:12.764Z,98308.22
2019-03-09T16:09:46.222Z,98272.85
2019-03-09T16:12:15.415Z,98349.42
2019-03-09T16:14:44.932Z,98357.28
2019-03-09T16:17:14.208Z,98317.45
2019-03-09T16:19:43.705Z,98313.76
2019-03-09T16:22:13.119Z,98322.63
2019-03-09T16:24:43.096Z,98315.96
2019-03-09T16:27:13.891Z,98342.73
2019-03-09T16:29:44.235Z,98322.34
2019-03-09T16:32:13.413Z,98327.20
2019-03-09T16:34:43.949Z,98323.80
2019-03-09T16:37:13.568Z,98322.75
2019-03-09T16:39:42.820Z,98324.37
2019-03-09T16:42:12.014Z,98313.37
2019-03-09T16:44:41.202Z,98302.95
2019-03-09T16:47:11.187Z,98296.13
2019-03-09T16:49:40.548Z,98308.66
2019-03-09T16:52:11.142Z,98310.50
2019-03-09T16:54:40.985Z,98325.25
2019-03-09T16:57:11.646Z,98322.52
2019-03-09T16:59:44.240Z,98304.34
2019-03-09T17:02:12.938Z,98302.31
2019-03-09T17:04:42.127Z,98300.27
2019-03-09T17:07:11.354Z,98302.32
2019-03-09T17:09:41.996Z,98291.96
2019-03-09T17:12:11.201Z,98304.23
2019-03-09T17:14:40.727Z,98308.09
2019-03-09T17:17:09.989Z,98312.30
2019-03-09T17:19:41.056Z,98335.91
2019-03-09T17:22:10.254Z,98348.07
2019-03-09T17:24:39.413Z,98350.14
2019-03-09T17:27:09.424Z,98398.63
2019-03-09T17:29:39.577Z,98426.94
2019-03-09T17:32:08.787Z,98426.41
2019-03-09T17:34:40.121Z,98465.33
2019-03-09T17:37:09.762Z,98484.76
2019-03-09T17:39:39.183Z,98520.99
2019-03-09T17:42:08.367Z,98527.26
2019-03-09T17:44:37.546Z,98538.05
2019-03-09T17:47:07.041Z,98543.11
2019-03-09T17:49:37.662Z,98544.06
2019-03-09T17:52:06.848Z,98565.83
2019-03-09T17:54:36.034Z,98566.30
2019-03-09T17:57:05.684Z,98575.88
2019-03-09T17:59:35.962Z,98587.73
2019-03-09T18:02:06.551Z,98608.40
2019-03-09T18:04:36.374Z,98621.42
2019-03-09T18:07:25.195Z,98632.34
2019-03-09T18:09:57.553Z,98651.97
2019-03-09T18:12:26.996Z,98656.70
2019-03-09T18:14:56.578Z,98657.19
2019-03-09T18:17:25.773Z,98659.22
2019-03-09T18:22:46.682Z,98680.84
2019-03-09T18:25:15.875Z,98707.02
2019-03-09T18:27:45.066Z,98714.98
2019-03-09T18:30:16.203Z,98731.97
2019-03-09T18:32:47.990Z,98749.66
2019-03-09T18:35:18.224Z,98760.97
2019-03-09T18:37:48.796Z,98757.95
2019-03-09T18:40:18.201Z,98766.92
2019-03-09T18:42:47.393Z,98785.31
2019-03-09T18:45:18.003Z,98777.19
2019-03-09T18:47:48.001Z,98780.87
2019-03-09T18:50:18.710Z,98789.80
2019-03-09T18:52:48.257Z,98791.38
2019-03-09T18:55:19.743Z,98802.88
2019-03-09T18:57:49.076Z,98803.16
2019-03-09T19:00:18.722Z,98812.40
2019-03-09T19:02:48.868Z,98805.42
2019-03-09T19:05:18.031Z,98813.05
2019-03-09T19:07:47.728Z,98813.62
2019-03-09T19:10:17.273Z,98824.55
2019-03-09T19:12:46.491Z,98829.64
2019-03-09T19:15:15.913Z,98842.83
2019-03-09T19:17:45.064Z,98837.19
2019-03-09T19:20:14.749Z,98840.36
2019-03-09T19:22:44.163Z,98842.72
2019-03-09T19:25:14.680Z,98845.33
2019-03-09T19:27:44.854Z,98862.78
2019-03-09T19:30:15.288Z,98858.52
2019-03-09T19:32:45.147Z,98862.40
2019-03-09T19:35:14.448Z,98871.26
2019-03-09T19:37:43.710Z,98871.36
2019-03-09T19:40:13.926Z,98868.05
2019-03-09T19:42:43.209Z,98871.48
2019-03-09T19:45:13.311Z,98868.91
2019-03-09T19:47:42.591Z,98880.21
2019-03-09T19:50:13.745Z,98891.39
2019-03-09T19:52:43.012Z,98895.81
2019-03-09T19:55:12.578Z,98899.27
2019-03-09T19:57:52.089Z,98897.81
2019-03-09T20:00:21.281Z,98898.73
2019-03-09T20:02:50.433Z,98891.22
2019-03-09T20:05:20.053Z,98883.78
2019-03-09T20:07:49.947Z,98896.50
2019-03-09T20:10:22.472Z,98881.29
2019-03-09T20:12:52.244Z,98885.76
2019-03-09T20:15:25.535Z,98896.21
2019-03-09T20:18:01.080Z,98895.18
2019-03-09T20:20:30.474Z,98903.09
2019-03-09T20:22:59.826Z,98909.63
2019-03-09T20:25:30.426Z,98908.77
2019-03-09T20:27:59.623Z,98918.44
2019-03-09T20:30:33.478Z,98928.74
2019-03-09T20:33:03.055Z,98938.53
2019-03-09T20:35:36.530Z,98930.30
2019-03-09T20:38:05.760Z,98935.33
2019-03-09T20:40:35.863Z,98931.23
2019-03-09T20:43:05.546Z,98925.03
2019-03-09T20:45:35.237Z,98926.45
2019-03-09T20:48:08.454Z,98923.84
2019-03-09T20:50:41.424Z,98922.53
2019-03-09T20:53:11.300Z,98928.93
2019-03-09T20:55:40.866Z,98916.13
2019-03-09T20:58:10.935Z,98912.51
2019-03-09T21:00:40.381Z,98920.08
2019-03-09T21:03:11.022Z,98930.96
2019-03-09T21:05:40.380Z,98923.05
2019-03-09T21:08:11.512Z,98923.70
2019-03-09T21:11:04.161Z,98924.80
2019-03-09T21:13:33.530Z,98918.76
2019-03-09T21:16:03.119Z,98931.33
2019-03-09T21:18:34.396Z,98932.27
2019-03-09T21:21:17.331Z,98922.56
2019-03-09T21:23:46.884Z,98919.93
2019-03-09T21:26:17.197Z,98920.41
2019-03-09T21:28:47.986Z,98931.34
2019-03-09T21:31:17.773Z,98930.77
2019-03-09T21:33:47.264Z,98937.64
2019-03-09T21:36:16.461Z,98933.73
2019-03-09T21:38:46.018Z,98942.11
2019-03-09T21:41:15.964Z,98947.20
2019-03-09T21:43:45.191Z,98943.95
2019-03-09T21:46:14.634Z,98947.67
2019-03-09T21:48:46.980Z,98957.70
2019-03-09T21:51:16.421Z,98957.94
2019-03-09T21:53:45.640Z,98960.77
2019-03-09T21:56:14.810Z,98960.57
2019-03-09T21:58:44.465Z,98961.75
2019-03-09T22:01:14.678Z,98966.66
2019-03-09T22:03:45.060Z,98965.00
2019-03-09T22:06:14.774Z,98960.53
2019-03-09T22:08:45.215Z,98963.17
2019-03-09T22:11:14.473Z,98968.25
2019-03-09T22:13:43.774Z,98962.94
2019-03-09T22:16:13.759Z,98969.19
2019-03-09T22:18:42.964Z,98959.88
2019-03-09T22:21:12.523Z,98960.95
2019-03-09T22:23:44.357Z,98964.30
2019-03-09T22:26:13.919Z,98963.48
2019-03-09T22:28:43.742Z,98951.58
2019-03-09T22:31:13.196Z,98955.26
2019-03-09T22:33:43.396Z,98953.66
2019-03-09T22:36:12.909Z,98955.91
2019-03-09T22:38:43.193Z,98951.62
2019-03-09T22:41:13.661Z,98956.62
2019-03-09T22:43:43.167Z,98958.21
2019-03-09T22:46:13.161Z,98965.37
2019-03-09T22:48:42.596Z,98959.34
2019-03-09T22:51:15.451Z,98950.68
2019-03-09T22:53:45.487Z,98961.23
2019-03-09T22:56:14.681Z,98964.91
2019-03-09T22:58:44.204Z,98960.86
2019-03-09T23:01:13.467Z,98977.16
2019-03-09T23:03:42.628Z,98982.70
2019-03-09T23:06:12.894Z,98977.73
2019-03-09T23:08:43.255Z,98989.30
2019-03-09T23:11:17.050Z,98980.64
2019-03-09T23:13:46.981Z,98973.44
2019-03-09T23:16:16.498Z,98972.97
2019-03-09T23:18:46.250Z,98968.16
2019-03-09T23:21:15.727Z,98970.22
2019-03-09T23:23:44.978Z,98961.19
2019-03-09T23:26:15.035Z,98952.57
2019-03-09T23:28:48.671Z,98954.60
2019-03-09T23:31:18.143Z,98941.51
2019-03-09T23:33:47.686Z,98950.17
2019-03-09T23:36:17.438Z,98936.99
2019-03-09T23:38:46.634Z,98941.13
2019-03-09T23:41:16.606Z,98946.69
2019-03-09T23:43:47.230Z,98948.09
2019-03-09T23:46:16.418Z,98934.53
2019-03-09T23:48:46.676Z,98937.36
2019-03-09T23:51:17.667Z,98929.64
2019-03-09T23:53:47.060Z,98929.87
2019-03-09T23:56:16.222Z,98919.33
2019-03-09T23:58:45.758Z,98934.72
